sensor_id;sensor_type;location;lat;lon;timestamp;pressure;altitude;pressure_sealevel;temperature;humidity
64298;BME280;50639;53.270;7.956;2023-08-07T00:01:35;100627.34;;;14.94;85.10
64298;BME280;50639;53.270;7.956;2023-08-07T00:04:00;100629.16;;;14.93;85.16
64298;BME280;50639;53.270;7.956;2023-08-07T00:06:26;100616.06;;;14.83;85.99
64298;BME280;50639;53.270;7.956;2023-08-07T00:08:51;100623.53;;;14.96;85.64
64298;BME280;50639;53.270;7.956;2023-08-07T00:11:17;100631.16;;;14.99;85.42
64298;BME280;50639;53.270;7.956;2023-08-07T00:13:43;100624.19;;;14.98;85.79
64298;BME280;50639;53.270;7.956;2023-08-07T00:16:08;100624.41;;;15.05;85.20
64298;BME280;50639;53.270;7.956;2023-08-07T00:18:35;100626.69;;;15.00;85.66
64298;BME280;50639;53.270;7.956;2023-08-07T00:21:00;100621.38;;;15.00;85.70
64298;BME280;50639;53.270;7.956;2023-08-07T00:23:26;100619.28;;;15.11;85.99
64298;BME280;50639;53.270;7.956;2023-08-07T00:25:51;100618.63;;;15.09;85.52
64298;BME280;50639;53.270;7.956;2023-08-07T00:28:17;100612.78;;;14.98;85.87
64298;BME280;50639;53.270;7.956;2023-08-07T00:30:42;100610.47;;;15.03;85.64
64298;BME280;50639;53.270;7.956;2023-08-07T00:33:07;100611.13;;;14.97;86.32
64298;BME280;50639;53.270;7.956;2023-08-07T00:35:33;100612.09;;;14.96;86.38
64298;BME280;50639;53.270;7.956;2023-08-07T00:37:58;100607.69;;;15.04;86.10
64298;BME280;50639;53.270;7.956;2023-08-07T00:40:23;100610.44;;;14.95;86.38
64298;BME280;50639;53.270;7.956;2023-08-07T00:42:49;100608.31;;;14.98;86.38
64298;BME280;50639;53.270;7.956;2023-08-07T00:45:15;100610.44;;;14.95;86.17
64298;BME280;50639;53.270;7.956;2023-08-07T00:47:43;100617.06;;;14.99;86.11
64298;BME280;50639;53.270;7.956;2023-08-07T00:50:09;100619.22;;;14.95;86.52
64298;BME280;50639;53.270;7.956;2023-08-07T00:52:35;100618.41;;;14.95;86.29
64298;BME280;50639;53.270;7.956;2023-08-07T00:55:01;100622.88;;;15.02;86.26
64298;BME280;50639;53.270;7.956;2023-08-07T00:57:27;100616.41;;;14.88;86.85
64298;BME280;50639;53.270;7.956;2023-08-07T00:59:52;100622.88;;;14.94;86.15
64298;BME280;50639;53.270;7.956;2023-08-07T01:02:18;100625.97;;;14.81;86.66
64298;BME280;50639;53.270;7.956;2023-08-07T01:04:44;100616.22;;;14.90;85.91
64298;BME280;50639;53.270;7.956;2023-08-07T01:07:10;100621.69;;;14.80;86.62
64298;BME280;50639;53.270;7.956;2023-08-07T01:09:35;100614.91;;;14.86;86.15
64298;BME280;50639;53.270;7.956;2023-08-07T01:12:13;100613.41;;;14.83;86.67
64298;BME280;50639;53.270;7.956;2023-08-07T01:14:49;100622.50;;;14.81;86.63
64298;BME280;50639;53.270;7.956;2023-08-07T01:17:17;100615.31;;;14.73;86.89
64298;BME280;50639;53.270;7.956;2023-08-07T01:19:44;100620.78;;;14.72;87.26
64298;BME280;50639;53.270;7.956;2023-08-07T01:22:13;100619.63;;;14.74;86.76
64298;BME280;50639;53.270;7.956;2023-08-07T01:24:41;100615.03;;;14.76;87.22
64298;BME280;50639;53.270;7.956;2023-08-07T01:29:39;100616.06;;;14.83;87.01
64298;BME280;50639;53.270;7.956;2023-08-07T01:32:09;100616.69;;;14.77;86.72
64298;BME280;50639;53.270;7.956;2023-08-07T01:34:40;100609.75;;;14.76;87.16
64298;BME280;50639;53.270;7.956;2023-08-07T01:37:07;100609.41;;;14.79;87.06
64298;BME280;50639;53.270;7.956;2023-08-07T01:39:37;100605.56;;;14.74;86.73
64298;BME280;50639;53.270;7.956;2023-08-07T01:42:03;100615.50;;;14.72;87.58
64298;BME280;50639;53.270;7.956;2023-08-07T01:44:30;100614.16;;;14.68;87.32
64298;BME280;50639;53.270;7.956;2023-08-07T01:46:55;100616.69;;;14.77;87.15
64298;BME280;50639;53.270;7.956;2023-08-07T01:49:21;100620.34;;;14.84;87.58
64298;BME280;50639;53.270;7.956;2023-08-07T01:51:46;100614.94;;;15.02;86.84
64298;BME280;50639;53.270;7.956;2023-08-07T01:54:12;100614.81;;;15.12;86.34
64298;BME280;50639;53.270;7.956;2023-08-07T01:56:37;100616.56;;;14.95;86.66
64298;BME280;50639;53.270;7.956;2023-08-07T01:59:03;100612.09;;;14.96;86.91
64298;BME280;50639;53.270;7.956;2023-08-07T02:01:28;100617.91;;;14.91;87.18
64298;BME280;50639;53.270;7.956;2023-08-07T02:03:53;100609.44;;;14.96;87.16
64298;BME280;50639;53.270;7.956;2023-08-07T02:06:19;100617.56;;;14.94;86.94
64298;BME280;50639;53.270;7.956;2023-08-07T02:08:44;100618.56;;;15.01;87.30
64298;BME280;50639;53.270;7.956;2023-08-07T02:14:14;100624.09;;;15.16;86.75
64298;BME280;50639;53.270;7.956;2023-08-07T02:16:39;100633.56;;;15.18;87.09
64298;BME280;50639;53.270;7.956;2023-08-07T02:19:05;100610.66;;;15.09;87.58
64298;BME280;50639;53.270;7.956;2023-08-07T02:21:31;100627.53;;;15.00;88.27
64298;BME280;50639;53.270;7.956;2023-08-07T02:23:56;100630.13;;;14.84;88.70
64298;BME280;50639;53.270;7.956;2023-08-07T02:26:22;100637.94;;;14.94;88.75
64298;BME280;50639;53.270;7.956;2023-08-07T02:28:47;100629.84;;;14.95;88.61
64298;BME280;50639;53.270;7.956;2023-08-07T02:31:13;100636.00;;;15.04;88.29
64298;BME280;50639;53.270;7.956;2023-08-07T02:33:38;100632.81;;;15.00;88.11
64298;BME280;50639;53.270;7.956;2023-08-07T02:36:04;100640.16;;;15.06;88.33
64298;BME280;50639;53.270;7.956;2023-08-07T02:38:30;100634.03;;;15.06;88.22
64298;BME280;50639;53.270;7.956;2023-08-07T02:40:55;100638.78;;;15.02;88.25
64298;BME280;50639;53.270;7.956;2023-08-07T02:43:21;100636.84;;;15.04;87.67
64298;BME280;50639;53.270;7.956;2023-08-07T02:45:46;100625.19;;;14.89;88.12
64298;BME280;50639;53.270;7.956;2023-08-07T02:48:11;100625.69;;;14.93;87.98
64298;BME280;50639;53.270;7.956;2023-08-07T02:50:37;100620.06;;;14.96;87.94
64298;BME280;50639;53.270;7.956;2023-08-07T02:53:02;100631.31;;;14.90;88.37
64298;BME280;50639;53.270;7.956;2023-08-07T02:55:27;100628.81;;;14.88;88.43
64298;BME280;50639;53.270;7.956;2023-08-07T02:57:53;100626.19;;;14.96;88.08
64298;BME280;50639;53.270;7.956;2023-08-07T03:00:19;100633.81;;;14.99;88.33
64298;BME280;50639;53.270;7.956;2023-08-07T03:02:44;100644.25;;;15.01;87.89
64298;BME280;50639;53.270;7.956;2023-08-07T03:05:10;100639.44;;;14.96;87.93
64298;BME280;50639;53.270;7.956;2023-08-07T03:07:35;100633.44;;;14.86;88.01
64298;BME280;50639;53.270;7.956;2023-08-07T03:10:00;100628.16;;;14.86;87.79
64298;BME280;50639;53.270;7.956;2023-08-07T03:12:26;100615.75;;;14.95;87.42
64298;BME280;50639;53.270;7.956;2023-08-07T03:14:51;100622.00;;;14.77;86.87
64298;BME280;50639;53.270;7.956;2023-08-07T03:17:17;100634.41;;;14.77;87.01
64298;BME280;50639;53.270;7.956;2023-08-07T03:19:43;100627.31;;;14.77;85.51
64298;BME280;50639;53.270;7.956;2023-08-07T03:22:09;100630.06;;;14.68;86.32
64298;BME280;50639;53.270;7.956;2023-08-07T03:24:35;100630.75;;;14.44;86.33
64298;BME280;50639;53.270;7.956;2023-08-07T03:27:00;100628.72;;;14.38;87.21
64298;BME280;50639;53.270;7.956;2023-08-07T03:29:26;100622.56;;;14.37;86.69
64298;BME280;50639;53.270;7.956;2023-08-07T03:31:51;100620.16;;;14.44;86.38
64298;BME280;50639;53.270;7.956;2023-08-07T03:34:17;100627.66;;;14.48;86.64
64298;BME280;50639;53.270;7.956;2023-08-07T03:36:44;100624.34;;;14.46;86.46
64298;BME280;50639;53.270;7.956;2023-08-07T03:39:09;100621.72;;;14.54;86.28
64298;BME280;50639;53.270;7.956;2023-08-07T03:41:35;100633.66;;;14.59;86.29
64298;BME280;50639;53.270;7.956;2023-08-07T03:44:01;100635.97;;;14.53;86.35
64298;BME280;50639;53.270;7.956;2023-08-07T03:46:27;100637.09;;;14.51;86.23
64298;BME280;50639;53.270;7.956;2023-08-07T03:48:52;100641.47;;;14.42;86.54
64298;BME280;50639;53.270;7.956;2023-08-07T03:51:19;100640.53;;;14.43;86.41
64298;BME280;50639;53.270;7.956;2023-08-07T03:53:48;100643.72;;;14.29;85.94
64298;BME280;50639;53.270;7.956;2023-08-07T03:56:14;100640.44;;;14.35;85.85
64298;BME280;50639;53.270;7.956;2023-08-07T03:58:41;100638.78;;;14.34;85.73
64298;BME280;50639;53.270;7.956;2023-08-07T04:01:07;100636.66;;;14.38;85.71
64298;BME280;50639;53.270;7.956;2023-08-07T04:03:32;100632.16;;;14.30;86.11
64298;BME280;50639;53.270;7.956;2023-08-07T04:05:59;100629.09;;;14.17;86.09
64298;BME280;50639;53.270;7.956;2023-08-07T04:08:26;100624.84;;;14.24;86.23
64298;BME280;50639;53.270;7.956;2023-08-07T04:11:05;100624.03;;;14.32;85.75
64298;BME280;50639;53.270;7.956;2023-08-07T04:13:32;100626.19;;;14.28;86.17
64298;BME280;50639;53.270;7.956;2023-08-07T04:15:58;100631.59;;;14.18;86.12
64298;BME280;50639;53.270;7.956;2023-08-07T04:18:24;100630.66;;;14.27;86.30
64298;BME280;50639;53.270;7.956;2023-08-07T04:20:53;100624.63;;;14.17;86.47
64298;BME280;50639;53.270;7.956;2023-08-07T04:23:20;100618.88;;;14.22;86.32
64298;BME280;50639;53.270;7.956;2023-08-07T04:25:47;100627.63;;;14.22;85.74
64298;BME280;50639;53.270;7.956;2023-08-07T04:28:12;100625.75;;;14.15;86.72
64298;BME280;50639;53.270;7.956;2023-08-07T04:30:38;100633.41;;;14.18;86.73
64298;BME280;50639;53.270;7.956;2023-08-07T04:33:04;100626.81;;;14.22;86.17
64298;BME280;50639;53.270;7.956;2023-08-07T04:35:30;100624.53;;;14.27;86.16
64298;BME280;50639;53.270;7.956;2023-08-07T04:37:56;100625.19;;;14.29;86.43
64298;BME280;50639;53.270;7.956;2023-08-07T04:40:21;100636.47;;;14.31;86.29
64298;BME280;50639;53.270;7.956;2023-08-07T04:42:49;100643.00;;;14.45;85.93
64298;BME280;50639;53.270;7.956;2023-08-07T04:45:14;100645.06;;;14.33;86.22
64298;BME280;50639;53.270;7.956;2023-08-07T04:47:40;100649.28;;;14.44;85.89
64298;BME280;50639;53.270;7.956;2023-08-07T04:50:06;100646.66;;;14.44;85.71
64298;BME280;50639;53.270;7.956;2023-08-07T04:52:32;100646.88;;;14.50;85.70
64298;BME280;50639;53.270;7.956;2023-08-07T04:54:57;100651.84;;;14.53;85.98
64298;BME280;50639;53.270;7.956;2023-08-07T04:57:23;100646.56;;;14.53;85.79
64298;BME280;50639;53.270;7.956;2023-08-07T04:59:48;100643.28;;;14.42;86.34
64298;BME280;50639;53.270;7.956;2023-08-07T05:02:14;100642.75;;;14.56;86.00
64298;BME280;50639;53.270;7.956;2023-08-07T05:04:39;100643.72;;;14.47;85.90
64298;BME280;50639;53.270;7.956;2023-08-07T05:07:05;100657.53;;;14.41;86.59
64298;BME280;50639;53.270;7.956;2023-08-07T05:09:30;100662.53;;;14.44;86.13
64298;BME280;50639;53.270;7.956;2023-08-07T05:11:56;100664.63;;;14.58;86.52
64298;BME280;50639;53.270;7.956;2023-08-07T05:14:21;100658.38;;;14.67;85.96
64298;BME280;50639;53.270;7.956;2023-08-07T05:16:47;100659.38;;;14.74;86.13
64298;BME280;50639;53.270;7.956;2023-08-07T05:19:13;100660.25;;;14.75;85.83
64298;BME280;50639;53.270;7.956;2023-08-07T05:21:38;100661.28;;;14.82;85.54
64298;BME280;50639;53.270;7.956;2023-08-07T05:24:04;100659.09;;;14.77;85.98
64298;BME280;50639;53.270;7.956;2023-08-07T05:26:30;100675.69;;;14.87;85.54
64298;BME280;50639;53.270;7.956;2023-08-07T05:28:56;100672.97;;;15.05;85.87
64298;BME280;50639;53.270;7.956;2023-08-07T05:31:24;100669.63;;;15.03;85.58
64298;BME280;50639;53.270;7.956;2023-08-07T05:33:50;100663.53;;;15.11;85.67
64298;BME280;50639;53.270;7.956;2023-08-07T05:36:15;100655.41;;;15.04;85.69
64298;BME280;50639;53.270;7.956;2023-08-07T05:38:41;100663.22;;;15.14;85.51
64298;BME280;50639;53.270;7.956;2023-08-07T05:41:08;100667.03;;;15.19;84.95
64298;BME280;50639;53.270;7.956;2023-08-07T05:43:34;100665.09;;;15.46;84.58
64298;BME280;50639;53.270;7.956;2023-08-07T05:46:00;100665.00;;;15.72;84.55
64298;BME280;50639;53.270;7.956;2023-08-07T05:48:26;100672.13;;;15.88;83.85
64298;BME280;50639;53.270;7.956;2023-08-07T05:50:51;100672.81;;;15.90;83.57
64298;BME280;50639;53.270;7.956;2023-08-07T05:53:19;100687.06;;;15.80;84.13
64298;BME280;50639;53.270;7.956;2023-08-07T05:55:44;100689.72;;;15.64;84.05
64298;BME280;50639;53.270;7.956;2023-08-07T05:58:10;100689.41;;;15.25;85.05
64298;BME280;50639;53.270;7.956;2023-08-07T06:00:35;100700.69;;;15.19;85.27
64298;BME280;50639;53.270;7.956;2023-08-07T06:03:01;100704.09;;;15.03;85.34
64298;BME280;50639;53.270;7.956;2023-08-07T06:05:26;100710.69;;;14.99;85.90
64298;BME280;50639;53.270;7.956;2023-08-07T06:07:52;100719.47;;;15.00;85.68
64298;BME280;50639;53.270;7.956;2023-08-07T06:10:17;100722.25;;;14.90;85.91
64298;BME280;50639;53.270;7.956;2023-08-07T06:12:42;100715.97;;;14.91;86.71
64298;BME280;50639;53.270;7.956;2023-08-07T06:15:08;100712.50;;;14.91;84.41
64298;BME280;50639;53.270;7.956;2023-08-07T06:17:34;100712.94;;;14.78;83.73
64298;BME280;50639;53.270;7.956;2023-08-07T06:20:00;100709.97;;;14.81;84.85
64298;BME280;50639;53.270;7.956;2023-08-07T06:22:25;100713.03;;;15.02;84.76
64298;BME280;50639;53.270;7.956;2023-08-07T06:24:51;100713.03;;;15.02;84.74
64298;BME280;50639;53.270;7.956;2023-08-07T06:27:16;100714.13;;;15.26;84.33
64298;BME280;50639;53.270;7.956;2023-08-07T06:29:41;100711.94;;;15.13;83.99
64298;BME280;50639;53.270;7.956;2023-08-07T06:32:07;100708.16;;;15.24;84.36
64298;BME280;50639;53.270;7.956;2023-08-07T06:34:32;100705.47;;;15.15;84.62
64298;BME280;50639;53.270;7.956;2023-08-07T06:37:00;100711.47;;;15.26;83.88
64298;BME280;50639;53.270;7.956;2023-08-07T06:39:25;100707.06;;;15.42;83.78
64298;BME280;50639;53.270;7.956;2023-08-07T06:41:50;100706.22;;;15.42;82.46
64298;BME280;50639;53.270;7.956;2023-08-07T06:44:19;100708.41;;;15.55;83.53
64298;BME280;50639;53.270;7.956;2023-08-07T06:46:45;100705.81;;;15.71;82.94
64298;BME280;50639;53.270;7.956;2023-08-07T06:49:10;100704.34;;;15.85;83.00
64298;BME280;50639;53.270;7.956;2023-08-07T06:51:36;100704.66;;;15.90;81.62
64298;BME280;50639;53.270;7.956;2023-08-07T06:54:02;100696.88;;;15.96;81.89
64298;BME280;50639;53.270;7.956;2023-08-07T06:56:27;100700.50;;;15.87;81.38
64298;BME280;50639;53.270;7.956;2023-08-07T06:58:52;100707.81;;;15.69;81.44
64298;BME280;50639;53.270;7.956;2023-08-07T07:01:18;100702.00;;;15.82;81.82
64298;BME280;50639;53.270;7.956;2023-08-07T07:03:43;100704.38;;;15.93;81.26
64298;BME280;50639;53.270;7.956;2023-08-07T07:06:12;100711.63;;;15.74;80.11
64298;BME280;50639;53.270;7.956;2023-08-07T07:08:37;100706.69;;;15.96;81.32
64298;BME280;50639;53.270;7.956;2023-08-07T07:11:02;100720.59;;;15.90;78.15
64298;BME280;50639;53.270;7.956;2023-08-07T07:13:29;100733.91;;;15.98;79.12
64298;BME280;50639;53.270;7.956;2023-08-07T07:15:55;100723.63;;;16.27;78.51
64298;BME280;50639;53.270;7.956;2023-08-07T07:18:20;100725.25;;;16.36;77.82
64298;BME280;50639;53.270;7.956;2023-08-07T07:20:46;100724.75;;;16.49;77.57
64298;BME280;50639;53.270;7.956;2023-08-07T07:23:11;100731.22;;;16.47;74.75
64298;BME280;50639;53.270;7.956;2023-08-07T07:25:37;100744.50;;;16.55;74.49
64298;BME280;50639;53.270;7.956;2023-08-07T07:28:02;100736.53;;;16.47;73.35
64298;BME280;50639;53.270;7.956;2023-08-07T07:30:28;100737.22;;;16.49;75.61
64298;BME280;50639;53.270;7.956;2023-08-07T07:32:53;100736.38;;;16.56;74.74
64298;BME280;50639;53.270;7.956;2023-08-07T07:35:19;100733.88;;;16.47;74.33
64298;BME280;50639;53.270;7.956;2023-08-07T07:37:44;100734.06;;;16.37;74.18
64298;BME280;50639;53.270;7.956;2023-08-07T07:40:10;100741.72;;;16.32;72.17
64298;BME280;50639;53.270;7.956;2023-08-07T07:42:35;100761.63;;;16.36;73.47
64298;BME280;50639;53.270;7.956;2023-08-07T07:45:01;100746.03;;;16.49;70.86
64298;BME280;50639;53.270;7.956;2023-08-07T07:47:26;100755.47;;;16.52;71.97
64298;BME280;50639;53.270;7.956;2023-08-07T07:50:05;100751.47;;;16.72;71.87
64298;BME280;50639;53.270;7.956;2023-08-07T07:52:32;100772.22;;;16.77;71.40
64298;BME280;50639;53.270;7.956;2023-08-07T07:54:57;100778.41;;;16.69;70.51
64298;BME280;50639;53.270;7.956;2023-08-07T07:57:23;100782.22;;;16.58;70.35
64298;BME280;50639;53.270;7.956;2023-08-07T07:59:48;100774.41;;;16.32;70.57
64298;BME280;50639;53.270;7.956;2023-08-07T08:02:14;100778.41;;;16.36;71.02
64298;BME280;50639;53.270;7.956;2023-08-07T08:04:41;100778.72;;;16.33;70.38
64298;BME280;50639;53.270;7.956;2023-08-07T08:07:06;100780.56;;;16.33;69.44
64298;BME280;50639;53.270;7.956;2023-08-07T08:09:32;100791.19;;;16.33;69.79
64298;BME280;50639;53.270;7.956;2023-08-07T08:11:57;100792.84;;;16.42;70.38
64298;BME280;50639;53.270;7.956;2023-08-07T08:14:22;100794.16;;;16.46;67.83
64298;BME280;50639;53.270;7.956;2023-08-07T08:16:48;100786.03;;;16.56;68.96
64298;BME280;50639;53.270;7.956;2023-08-07T08:19:15;100797.84;;;16.86;68.40
64298;BME280;50639;53.270;7.956;2023-08-07T08:21:42;100792.94;;;17.06;65.28
64298;BME280;50639;53.270;7.956;2023-08-07T08:24:07;100782.44;;;17.20;65.48
64298;BME280;50639;53.270;7.956;2023-08-07T08:26:33;100812.75;;;17.03;65.92
64298;BME280;50639;53.270;7.956;2023-08-07T08:28:58;100850.16;;;16.53;66.30
64298;BME280;50639;53.270;7.956;2023-08-07T08:31:24;100834.53;;;16.25;66.69
64298;BME280;50639;53.270;7.956;2023-08-07T08:33:49;100820.09;;;16.20;67.67
64298;BME280;50639;53.270;7.956;2023-08-07T08:36:15;100820.75;;;16.22;68.54
64298;BME280;50639;53.270;7.956;2023-08-07T08:38:40;100836.84;;;16.20;68.69
64298;BME280;50639;53.270;7.956;2023-08-07T08:41:07;100830.03;;;16.34;69.89
64298;BME280;50639;53.270;7.956;2023-08-07T08:43:35;100840.03;;;16.64;69.41
64298;BME280;50639;53.270;7.956;2023-08-07T08:46:04;100832.56;;;16.68;66.96
64298;BME280;50639;53.270;7.956;2023-08-07T08:48:34;100831.75;;;16.84;67.40
64298;BME280;50639;53.270;7.956;2023-08-07T08:51:01;100821.25;;;16.90;66.91
64298;BME280;50639;53.270;7.956;2023-08-07T08:53:27;100821.28;;;16.82;63.84
64298;BME280;50639;53.270;7.956;2023-08-07T08:55:53;100828.03;;;17.09;66.06
64298;BME280;50639;53.270;7.956;2023-08-07T08:58:19;100829.69;;;17.18;60.65
64298;BME280;50639;53.270;7.956;2023-08-07T09:00:45;100824.19;;;17.20;60.81
64298;BME280;50639;53.270;7.956;2023-08-07T09:03:11;100831.34;;;17.19;58.38
64298;BME280;50639;53.270;7.956;2023-08-07T09:05:37;100825.91;;;17.52;58.63
64298;BME280;50639;53.270;7.956;2023-08-07T09:08:02;100838.91;;;17.47;57.32
64298;BME280;50639;53.270;7.956;2023-08-07T09:10:29;100825.19;;;17.19;58.79
64298;BME280;50639;53.270;7.956;2023-08-07T09:13:01;100833.75;;;16.82;59.46
64298;BME280;50639;53.270;7.956;2023-08-07T09:15:30;100852.31;;;16.57;60.89
64298;BME280;50639;53.270;7.956;2023-08-07T09:17:56;100886.56;;;15.60;69.15
64298;BME280;50639;53.270;7.956;2023-08-07T09:20:24;100893.41;;;15.10;72.47
64298;BME280;50639;53.270;7.956;2023-08-07T09:22:49;100910.63;;;14.71;75.72
64298;BME280;50639;53.270;7.956;2023-08-07T09:25:26;100900.72;;;14.55;75.10
64298;BME280;50639;53.270;7.956;2023-08-07T09:27:54;100869.09;;;14.53;75.96
64298;BME280;50639;53.270;7.956;2023-08-07T09:30:20;100880.59;;;14.80;74.94
64298;BME280;50639;53.270;7.956;2023-08-07T09:32:47;100884.63;;;15.10;73.52
64298;BME280;50639;53.270;7.956;2023-08-07T09:35:13;100871.34;;;15.36;72.24
64298;BME280;50639;53.270;7.956;2023-08-07T09:37:38;100884.59;;;15.96;71.56
64298;BME280;50639;53.270;7.956;2023-08-07T09:40:04;100872.88;;;16.47;71.87
64298;BME280;50639;53.270;7.956;2023-08-07T09:42:31;100882.69;;;16.47;67.28
64298;BME280;50639;53.270;7.956;2023-08-07T09:44:59;100887.66;;;16.33;68.28
64298;BME280;50639;53.270;7.956;2023-08-07T09:47:25;100895.66;;;15.57;73.40
64298;BME280;50639;53.270;7.956;2023-08-07T09:49:54;100920.41;;;14.52;79.85
64298;BME280;50639;53.270;7.956;2023-08-07T09:52:19;100941.41;;;14.09;82.61
64298;BME280;50639;53.270;7.956;2023-08-07T09:54:45;100926.13;;;14.03;84.82
64298;BME280;50639;53.270;7.956;2023-08-07T09:57:10;100923.25;;;14.14;83.17
64298;BME280;50639;53.270;7.956;2023-08-07T09:59:36;100933.63;;;14.07;81.17
64298;BME280;50639;53.270;7.956;2023-08-07T10:02:03;100930.13;;;14.34;83.11
64298;BME280;50639;53.270;7.956;2023-08-07T10:04:29;100933.66;;;14.25;82.29
64298;BME280;50639;53.270;7.956;2023-08-07T10:06:54;100927.53;;;14.42;81.94
64298;BME280;50639;53.270;7.956;2023-08-07T10:09:21;100928.59;;;14.59;82.27
64298;BME280;50639;53.270;7.956;2023-08-07T10:11:46;100934.31;;;14.72;79.75
64298;BME280;50639;53.270;7.956;2023-08-07T10:14:13;100912.69;;;14.77;79.84
64298;BME280;50639;53.270;7.956;2023-08-07T10:16:40;100923.00;;;14.80;78.05
64298;BME280;50639;53.270;7.956;2023-08-07T10:19:07;100897.94;;;15.00;77.71
64298;BME280;50639;53.270;7.956;2023-08-07T10:21:36;100917.38;;;15.27;73.66
64298;BME280;50639;53.270;7.956;2023-08-07T10:24:07;100917.81;;;15.40;73.13
64298;BME280;50639;53.270;7.956;2023-08-07T10:26:34;100918.50;;;15.50;73.04
64298;BME280;50639;53.270;7.956;2023-08-07T10:29:02;100905.44;;;15.83;74.17
64298;BME280;50639;53.270;7.956;2023-08-07T10:31:28;100907.53;;;16.13;71.51
64298;BME280;50639;53.270;7.956;2023-08-07T10:33:55;100908.41;;;16.22;66.86
64298;BME280;50639;53.270;7.956;2023-08-07T10:36:20;100906.09;;;16.43;67.31
64298;BME280;50639;53.270;7.956;2023-08-07T10:38:50;100913.34;;;16.83;65.57
64298;BME280;50639;53.270;7.956;2023-08-07T10:41:18;100911.69;;;17.07;63.31
64298;BME280;50639;53.270;7.956;2023-08-07T10:43:44;100916.31;;;16.88;63.10
64298;BME280;50639;53.270;7.956;2023-08-07T10:46:12;100920.31;;;16.68;63.22
64298;BME280;50639;53.270;7.956;2023-08-07T10:48:45;100933.59;;;16.68;62.97
64298;BME280;50639;53.270;7.956;2023-08-07T10:51:16;100910.78;;;16.65;61.66
64298;BME280;50639;53.270;7.956;2023-08-07T10:53:44;100914.97;;;17.00;62.09
64298;BME280;50639;53.270;7.956;2023-08-07T10:56:15;100911.19;;;16.87;59.33
64298;BME280;50639;53.270;7.956;2023-08-07T10:58:42;100920.31;;;17.00;58.22
64298;BME280;50639;53.270;7.956;2023-08-07T11:03:59;100910.28;;;17.43;58.86
64298;BME280;50639;53.270;7.956;2023-08-07T11:06:30;100917.91;;;17.54;59.64
64298;BME280;50639;53.270;7.956;2023-08-07T11:08:59;100923.88;;;17.64;59.11
64298;BME280;50639;53.270;7.956;2023-08-07T11:11:26;100926.16;;;17.84;59.65
64298;BME280;50639;53.270;7.956;2023-08-07T11:13:52;100926.09;;;18.00;57.98
64298;BME280;50639;53.270;7.956;2023-08-07T11:16:17;100928.38;;;17.56;59.08
64298;BME280;50639;53.270;7.956;2023-08-07T11:18:47;100939.16;;;17.62;58.79
64298;BME280;50639;53.270;7.956;2023-08-07T11:21:13;100942.44;;;17.89;58.38
64298;BME280;50639;53.270;7.956;2023-08-07T11:23:39;100954.00;;;17.73;58.42
64298;BME280;50639;53.270;7.956;2023-08-07T11:26:06;100960.72;;;18.00;57.73
64298;BME280;50639;53.270;7.956;2023-08-07T11:28:32;100947.00;;;17.64;59.38
64298;BME280;50639;53.270;7.956;2023-08-07T11:30:57;100946.56;;;17.03;59.70
64298;BME280;50639;53.270;7.956;2023-08-07T11:33:24;100970.19;;;17.15;60.95
64298;BME280;50639;53.270;7.956;2023-08-07T11:35:51;100966.84;;;17.37;61.00
64298;BME280;50639;53.270;7.956;2023-08-07T11:38:33;100951.06;;;16.87;62.24
64298;BME280;50639;53.270;7.956;2023-08-07T11:41:04;100960.22;;;16.84;61.97
64298;BME280;50639;53.270;7.956;2023-08-07T11:43:31;100964.53;;;17.18;63.12
64298;BME280;50639;53.270;7.956;2023-08-07T11:45:58;100963.69;;;17.33;60.79
64298;BME280;50639;53.270;7.956;2023-08-07T11:48:28;100960.53;;;17.22;61.42
64298;BME280;50639;53.270;7.956;2023-08-07T11:50:55;100962.00;;;17.32;61.00
64298;BME280;50639;53.270;7.956;2023-08-07T11:53:21;100974.81;;;17.04;63.97
64298;BME280;50639;53.270;7.956;2023-08-07T11:55:55;100974.84;;;17.37;63.14
64298;BME280;50639;53.270;7.956;2023-08-07T11:58:21;100969.19;;;17.40;62.26
64298;BME280;50639;53.270;7.956;2023-08-07T12:00:47;100985.66;;;17.11;63.98
64298;BME280;50639;53.270;7.956;2023-08-07T12:05:53;100974.91;;;16.54;63.42
64298;BME280;50639;53.270;7.956;2023-08-07T12:08:19;100980.91;;;16.64;61.74
64298;BME280;50639;53.270;7.956;2023-08-07T12:10:44;100963.03;;;16.99;61.31
64298;BME280;50639;53.270;7.956;2023-08-07T12:13:13;100970.47;;;17.52;61.93
64298;BME280;50639;53.270;7.956;2023-08-07T12:15:38;100967.66;;;17.54;59.52
64298;BME280;50639;53.270;7.956;2023-08-07T12:18:07;101016.59;;;17.37;59.58
64298;BME280;50639;53.270;7.956;2023-08-07T12:20:32;100990.25;;;17.58;61.12
64298;BME280;50639;53.270;7.956;2023-08-07T12:22:58;100962.31;;;17.78;61.90
64298;BME280;50639;53.270;7.956;2023-08-07T12:25:23;100968.78;;;17.84;61.18
64298;BME280;50639;53.270;7.956;2023-08-07T12:27:48;100976.16;;;17.49;61.25
64298;BME280;50639;53.270;7.956;2023-08-07T12:30:14;100960.31;;;17.56;62.07
64298;BME280;50639;53.270;7.956;2023-08-07T12:32:40;100968.34;;;17.40;60.59
64298;BME280;50639;53.270;7.956;2023-08-07T12:35:06;100979.34;;;17.37;60.96
64298;BME280;50639;53.270;7.956;2023-08-07T12:37:34;100973.66;;;17.31;59.58
64298;BME280;50639;53.270;7.956;2023-08-07T12:39:59;100969.69;;;17.19;57.83
64298;BME280;50639;53.270;7.956;2023-08-07T12:42:25;100966.78;;;17.61;57.71
64298;BME280;50639;53.270;7.956;2023-08-07T12:44:50;100979.91;;;17.95;53.87
64298;BME280;50639;53.270;7.956;2023-08-07T12:47:16;100970.91;;;17.88;52.03
64298;BME280;50639;53.270;7.956;2023-08-07T12:49:41;101003.91;;;17.63;50.31
64298;BME280;50639;53.270;7.956;2023-08-07T12:52:06;100989.47;;;17.33;51.05
64298;BME280;50639;53.270;7.956;2023-08-07T12:54:32;100993.31;;;17.06;53.06
64298;BME280;50639;53.270;7.956;2023-08-07T12:56:58;100994.81;;;17.17;54.68